Erie, PA

2:36 PM EST on January 26, 2015 (GMT -0500)
Downtown Erie PA | Change Station
CLOSE
Current Station
Personal Weather Station
Location: Erie, PA
Elevation: 700 ft
Nearby Weather Stations

Elev 700 ft 42.13 °N, 80.09 °W | Updated 11 minutes ago

Overcast
Overcast
21.6 °F
Feels Like 13 °F
N
7.0
Wind Variable Wind from ENE

Today
High -- | Low -- °F
--% Chance of Precip.
Yesterday
High -- | Low -- °F
Precip. -- in
7:39 AM 5:26 PM
Waxing Crescent, 46% visible
Pressure 29.81 in
Visibility 1.2 miles
Clouds Few 800 ft
Mostly Cloudy 1200 ft
Overcast 3800 ft
Windchill 13 °F
Dew Point 19 °F
Humidity 89%
Rainfall 0.00 in
Snow Depth Not available.
UV 0.7 out of 12
Pollen .10 out of 12
Air Quality Not available.
Flu Activity Not available.
SPECI KERI 261931Z 04013KT 1 1/4SM -SN FEW008 BKN012 OVC038 M06/M09 A2981 RMK AO2 SNB06 P0001 T10611089

More Conditions Fewer Conditions

Pressure 29.81 in
Visibility 1.2 miles
Clouds Few 800 ft
Mostly Cloudy 1200 ft
Overcast 3800 ft
Windchill 13 °F
Dew Point 19 °F
Humidity 89%
Rainfall 0.00 in
Snow Depth Not available.
UV 0.7 out of 12
Pollen .10 out of 12
Air Quality Not available.
Flu Activity Not available.
SPECI KERI 261931Z 04013KT 1 1/4SM -SN FEW008 BKN012 OVC038 M06/M09 A2981 RMK AO2 SNB06 P0001 T10611089

More Conditions Fewer Conditions

10-Day Weather Forecast

Almanac

Astronomy

Jan. 26, 2015 Rise Set
Actual Time
Civil Twilight
Nautical Twilight
Astronomical Twilight
Moon
Length of Visible Light
Length of Day
Tomorrow will be .
, % of the Moon is Illuminated

Today's Extremes

State Highs State Lows

Community

WunderPhotos

Upload Photos

1,790,338 photos uploaded!

WunderBlogs® & News

Nearby

Air Quality

  Air Quality AQ Index Pollutant
Not available.

Snow Depth

Station Depth Elevation

Earthquake Activity

City Distance Mag. Time & Date
Minimum magnitude displayed is 2.5.

Coastal Water Temperatures

Place Temperature

Nearby Weather Stations